sensor_id;sensor_type;location;lat;lon;timestamp;pressure;altitude;pressure_sealevel;temperature;humidity
32237;BME280;18726;44.732;10.550;2023-06-22T00:00:24;101263.44;;;29.30;97.86
32237;BME280;18726;44.732;10.550;2023-06-22T00:03:28;101273.13;;;29.47;96.89
32237;BME280;18726;44.732;10.550;2023-06-22T00:06:32;101264.75;;;29.56;89.04
32237;BME280;18726;44.732;10.550;2023-06-22T00:09:35;101273.19;;;29.66;91.65
32237;BME280;18726;44.732;10.550;2023-06-22T00:12:39;101274.75;;;29.67;89.06
32237;BME280;18726;44.732;10.550;2023-06-22T00:15:42;101288.16;;;29.72;89.87
32237;BME280;18726;44.732;10.550;2023-06-22T00:18:46;101283.00;;;29.79;88.60
32237;BME280;18726;44.732;10.550;2023-06-22T00:21:50;101271.28;;;29.53;99.88
32237;BME280;18726;44.732;10.550;2023-06-22T00:24:57;101270.53;;;29.13;100.00
32237;BME280;18726;44.732;10.550;2023-06-22T00:28:02;101268.66;;;29.10;94.92
32237;BME280;18726;44.732;10.550;2023-06-22T00:31:05;101277.09;;;29.28;98.87
32237;BME280;18726;44.732;10.550;2023-06-22T00:34:09;101265.75;;;28.92;100.00
32237;BME280;18726;44.732;10.550;2023-06-22T00:37:12;101263.53;;;28.55;100.00
32237;BME280;18726;44.732;10.550;2023-06-22T00:40:16;101259.47;;;28.78;95.17
32237;BME280;18726;44.732;10.550;2023-06-22T00:43:25;101258.28;;;28.88;98.36
32237;BME280;18726;44.732;10.550;2023-06-22T00:46:28;101256.78;;;28.97;99.61
32237;BME280;18726;44.732;10.550;2023-06-22T00:49:32;101244.97;;;29.02;100.00
32237;BME280;18726;44.732;10.550;2023-06-22T00:52:36;101247.97;;;29.07;100.00
32237;BME280;18726;44.732;10.550;2023-06-22T00:55:44;101250.91;;;29.04;99.91
32237;BME280;18726;44.732;10.550;2023-06-22T00:58:50;101257.13;;;29.08;96.32
32237;BME280;18726;44.732;10.550;2023-06-22T01:01:56;101263.06;;;30.50;84.32
32237;BME280;18726;44.732;10.550;2023-06-22T01:05:00;101267.28;;;30.55;89.81
32237;BME280;18726;44.732;10.550;2023-06-22T01:11:42;101262.47;;;30.37;88.91
32237;BME280;18726;44.732;10.550;2023-06-22T01:15:02;101258.59;;;30.07;94.05
32237;BME280;18726;44.732;10.550;2023-06-22T01:18:09;101269.94;;;29.85;96.87
32237;BME280;18726;44.732;10.550;2023-06-22T01:21:16;101267.66;;;30.02;84.79
32237;BME280;18726;44.732;10.550;2023-06-22T01:24:43;101276.97;;;30.27;86.24
32237;BME280;18726;44.732;10.550;2023-06-22T01:31:32;101281.19;;;30.59;87.83
32237;BME280;18726;44.732;10.550;2023-06-22T01:34:38;101279.44;;;29.30;90.34
32237;BME280;18726;44.732;10.550;2023-06-22T01:37:44;101310.50;;;28.92;100.00
32237;BME280;18726;44.732;10.550;2023-06-22T01:40:49;101302.06;;;28.61;100.00
32237;BME280;18726;44.732;10.550;2023-06-22T01:43:55;101300.44;;;26.92;100.00
32237;BME280;18726;44.732;10.550;2023-06-22T01:46:59;101285.88;;;27.27;100.00
32237;BME280;18726;44.732;10.550;2023-06-22T01:50:05;101291.09;;;27.50;100.00
32237;BME280;18726;44.732;10.550;2023-06-22T01:53:10;101302.03;;;28.17;100.00
32237;BME280;18726;44.732;10.550;2023-06-22T01:56:16;101305.88;;;29.69;92.16
32237;BME280;18726;44.732;10.550;2023-06-22T01:59:28;101310.91;;;30.10;89.79
32237;BME280;18726;44.732;10.550;2023-06-22T02:02:56;101323.53;;;30.42;85.88
32237;BME280;18726;44.732;10.550;2023-06-22T02:06:05;101323.06;;;30.16;89.27
32237;BME280;18726;44.732;10.550;2023-06-22T02:09:12;101319.63;;;30.40;85.72
32237;BME280;18726;44.732;10.550;2023-06-22T02:12:22;101298.72;;;29.86;89.92
32237;BME280;18726;44.732;10.550;2023-06-22T02:15:27;101314.50;;;30.47;84.37
32237;BME280;18726;44.732;10.550;2023-06-22T02:18:32;101306.88;;;30.02;86.98
32237;BME280;18726;44.732;10.550;2023-06-22T02:21:39;101305.47;;;30.43;83.31
32237;BME280;18726;44.732;10.550;2023-06-22T02:24:42;101302.69;;;30.25;86.46
32237;BME280;18726;44.732;10.550;2023-06-22T02:27:46;101308.59;;;30.00;86.69
32237;BME280;18726;44.732;10.550;2023-06-22T02:30:50;101319.03;;;30.17;87.62
32237;BME280;18726;44.732;10.550;2023-06-22T02:33:54;101307.66;;;28.39;100.00
32237;BME280;18726;44.732;10.550;2023-06-22T02:36:57;101302.97;;;28.01;100.00
32237;BME280;18726;44.732;10.550;2023-06-22T02:40:07;101314.88;;;28.14;100.00
32237;BME280;18726;44.732;10.550;2023-06-22T02:43:13;101307.66;;;28.04;100.00
32237;BME280;18726;44.732;10.550;2023-06-22T02:46:16;101317.84;;;27.98;100.00
32237;BME280;18726;44.732;10.550;2023-06-22T02:49:21;101326.31;;;28.07;98.96
32237;BME280;18726;44.732;10.550;2023-06-22T02:52:24;101326.72;;;28.18;100.00
32237;BME280;18726;44.732;10.550;2023-06-22T02:55:28;101319.41;;;27.99;100.00
32237;BME280;18726;44.732;10.550;2023-06-22T02:58:35;101324.56;;;27.88;100.00
32237;BME280;18726;44.732;10.550;2023-06-22T03:01:42;101325.00;;;27.99;100.00
32237;BME280;18726;44.732;10.550;2023-06-22T03:04:56;101326.06;;;28.14;99.14
32237;BME280;18726;44.732;10.550;2023-06-22T03:08:00;101327.41;;;28.22;97.09
32237;BME280;18726;44.732;10.550;2023-06-22T03:11:07;101331.19;;;28.29;95.04
32237;BME280;18726;44.732;10.550;2023-06-22T03:14:11;101334.84;;;28.38;93.81
32237;BME280;18726;44.732;10.550;2023-06-22T03:17:15;101328.78;;;28.05;100.00
32237;BME280;18726;44.732;10.550;2023-06-22T03:20:18;101331.06;;;27.72;100.00
32237;BME280;18726;44.732;10.550;2023-06-22T03:23:22;101331.56;;;27.58;100.00
32237;BME280;18726;44.732;10.550;2023-06-22T03:26:26;101331.97;;;27.44;100.00
32237;BME280;18726;44.732;10.550;2023-06-22T03:29:29;101321.03;;;27.24;100.00
32237;BME280;18726;44.732;10.550;2023-06-22T03:32:33;101321.81;;;27.12;100.00
32237;BME280;18726;44.732;10.550;2023-06-22T03:35:37;101334.41;;;27.04;100.00
32237;BME280;18726;44.732;10.550;2023-06-22T03:38:41;101325.16;;;27.07;100.00
32237;BME280;18726;44.732;10.550;2023-06-22T03:41:45;101337.88;;;27.20;100.00
32237;BME280;18726;44.732;10.550;2023-06-22T03:44:49;101337.00;;;27.36;100.00
32237;BME280;18726;44.732;10.550;2023-06-22T03:47:53;101328.63;;;27.36;100.00
32237;BME280;18726;44.732;10.550;2023-06-22T03:50:59;101331.31;;;27.27;100.00
32237;BME280;18726;44.732;10.550;2023-06-22T03:54:03;101329.53;;;27.33;100.00
32237;BME280;18726;44.732;10.550;2023-06-22T03:57:06;101327.06;;;27.35;100.00
32237;BME280;18726;44.732;10.550;2023-06-22T04:00:10;101326.50;;;27.53;100.00
32237;BME280;18726;44.732;10.550;2023-06-22T04:03:19;101324.63;;;27.63;100.00
32237;BME280;18726;44.732;10.550;2023-06-22T04:06:22;101331.09;;;27.60;99.78
32237;BME280;18726;44.732;10.550;2023-06-22T04:09:26;101330.41;;;27.55;100.00
32237;BME280;18726;44.732;10.550;2023-06-22T04:12:30;101329.28;;;27.91;99.60
32237;BME280;18726;44.732;10.550;2023-06-22T04:15:34;101324.69;;;27.97;97.52
32237;BME280;18726;44.732;10.550;2023-06-22T04:18:37;101334.47;;;28.02;96.52
32237;BME280;18726;44.732;10.550;2023-06-22T04:21:44;101328.53;;;28.12;94.62
32237;BME280;18726;44.732;10.550;2023-06-22T04:24:48;101330.75;;;28.17;94.35
32237;BME280;18726;44.732;10.550;2023-06-22T04:27:55;101339.09;;;28.30;96.35
32237;BME280;18726;44.732;10.550;2023-06-22T04:30:59;101334.31;;;28.74;92.66
32237;BME280;18726;44.732;10.550;2023-06-22T04:34:06;101347.66;;;29.23;88.70
32237;BME280;18726;44.732;10.550;2023-06-22T04:37:09;101338.22;;;29.61;86.26
32237;BME280;18726;44.732;10.550;2023-06-22T04:40:19;101333.25;;;29.65;87.68
32237;BME280;18726;44.732;10.550;2023-06-22T04:43:23;101331.16;;;30.05;84.97
32237;BME280;18726;44.732;10.550;2023-06-22T04:46:26;101336.78;;;30.42;81.50
32237;BME280;18726;44.732;10.550;2023-06-22T04:49:31;101326.81;;;30.22;85.51
32237;BME280;18726;44.732;10.550;2023-06-22T04:52:39;101323.53;;;30.06;86.44
32237;BME280;18726;44.732;10.550;2023-06-22T04:55:44;101319.03;;;29.99;86.99
32237;BME280;18726;44.732;10.550;2023-06-22T04:58:48;101319.28;;;29.92;87.74
32237;BME280;18726;44.732;10.550;2023-06-22T05:01:56;101320.22;;;29.89;88.63
32237;BME280;18726;44.732;10.550;2023-06-22T05:05:00;101323.03;;;29.89;90.69
32237;BME280;18726;44.732;10.550;2023-06-22T05:08:03;101318.41;;;30.13;88.95
32237;BME280;18726;44.732;10.550;2023-06-22T05:11:10;101327.09;;;30.34;88.04
32237;BME280;18726;44.732;10.550;2023-06-22T05:14:14;101328.66;;;30.53;88.19
32237;BME280;18726;44.732;10.550;2023-06-22T05:17:18;101322.81;;;31.02;84.49
32237;BME280;18726;44.732;10.550;2023-06-22T05:20:22;101327.19;;;31.45;81.85
32237;BME280;18726;44.732;10.550;2023-06-22T05:23:25;101329.88;;;31.97;79.28
32237;BME280;18726;44.732;10.550;2023-06-22T05:26:34;101328.06;;;32.47;76.97
32237;BME280;18726;44.732;10.550;2023-06-22T05:29:38;101315.84;;;32.50;75.33
32237;BME280;18726;44.732;10.550;2023-06-22T05:32:42;101316.63;;;32.65;75.14
32237;BME280;18726;44.732;10.550;2023-06-22T05:35:47;101326.78;;;32.86;75.30
32237;BME280;18726;44.732;10.550;2023-06-22T05:38:52;101311.59;;;33.13;73.02
32237;BME280;18726;44.732;10.550;2023-06-22T05:41:55;101317.66;;;32.92;73.91
32237;BME280;18726;44.732;10.550;2023-06-22T05:44:59;101315.69;;;32.83;74.05
32237;BME280;18726;44.732;10.550;2023-06-22T05:48:02;101320.16;;;32.75;75.33
32237;BME280;18726;44.732;10.550;2023-06-22T05:51:06;101326.13;;;33.41;73.00
32237;BME280;18726;44.732;10.550;2023-06-22T05:54:09;101332.13;;;34.04;70.49
32237;BME280;18726;44.732;10.550;2023-06-22T05:57:13;101324.59;;;34.42;69.50
32237;BME280;18726;44.732;10.550;2023-06-22T06:00:18;101338.03;;;35.04;65.82
32237;BME280;18726;44.732;10.550;2023-06-22T06:03:22;101337.31;;;35.41;64.90
32237;BME280;18726;44.732;10.550;2023-06-22T06:06:26;101338.19;;;35.64;63.52
32237;BME280;18726;44.732;10.550;2023-06-22T06:09:32;101341.38;;;35.34;62.98
32237;BME280;18726;44.732;10.550;2023-06-22T06:12:36;101344.31;;;35.57;61.43
32237;BME280;18726;44.732;10.550;2023-06-22T06:15:40;101343.13;;;35.69;60.54
32237;BME280;18726;44.732;10.550;2023-06-22T06:18:43;101344.88;;;35.61;60.73
32237;BME280;18726;44.732;10.550;2023-06-22T06:21:48;101340.56;;;35.71;60.39
32237;BME280;18726;44.732;10.550;2023-06-22T06:24:52;101337.09;;;35.93;60.05
32237;BME280;18726;44.732;10.550;2023-06-22T06:27:55;101340.47;;;36.02;58.94
32237;BME280;18726;44.732;10.550;2023-06-22T06:30:59;101337.63;;;37.23;55.51
32237;BME280;18726;44.732;10.550;2023-06-22T06:34:04;101326.28;;;38.09;53.09
32237;BME280;18726;44.732;10.550;2023-06-22T06:37:08;101325.78;;;38.87;50.08
32237;BME280;18726;44.732;10.550;2023-06-22T06:40:12;101335.81;;;40.34;45.68
32237;BME280;18726;44.732;10.550;2023-06-22T06:43:17;101327.06;;;39.89;46.49
32237;BME280;18726;44.732;10.550;2023-06-22T06:46:21;101335.38;;;41.79;43.47
32237;BME280;18726;44.732;10.550;2023-06-22T06:49:25;101337.31;;;41.31;40.93
32237;BME280;18726;44.732;10.550;2023-06-22T06:52:29;101325.66;;;41.16;41.72
32237;BME280;18726;44.732;10.550;2023-06-22T06:55:33;101325.69;;;42.29;38.78
32237;BME280;18726;44.732;10.550;2023-06-22T06:58:37;101327.03;;;44.86;36.36
32237;BME280;18726;44.732;10.550;2023-06-22T07:01:41;101325.50;;;45.23;34.71
32237;BME280;18726;44.732;10.550;2023-06-22T07:04:45;101318.72;;;45.51;33.32
32237;BME280;18726;44.732;10.550;2023-06-22T07:07:50;101321.44;;;46.37;32.25
32237;BME280;18726;44.732;10.550;2023-06-22T07:10:54;101329.81;;;47.34;32.49
32237;BME280;18726;44.732;10.550;2023-06-22T07:13:58;101311.53;;;48.18;30.76
32237;BME280;18726;44.732;10.550;2023-06-22T07:17:04;101314.94;;;48.07;29.79
32237;BME280;18726;44.732;10.550;2023-06-22T07:20:08;101311.84;;;47.09;31.07
32237;BME280;18726;44.732;10.550;2023-06-22T07:23:14;101300.44;;;45.08;33.52
32237;BME280;18726;44.732;10.550;2023-06-22T07:26:18;101300.03;;;45.90;32.59
32237;BME280;18726;44.732;10.550;2023-06-22T07:29:22;101309.00;;;47.78;31.08
32237;BME280;18726;44.732;10.550;2023-06-22T07:32:26;101312.22;;;48.73;29.06
32237;BME280;18726;44.732;10.550;2023-06-22T07:35:31;101323.72;;;49.48;28.02
32237;BME280;18726;44.732;10.550;2023-06-22T07:38:35;101322.91;;;50.15;27.53
32237;BME280;18726;44.732;10.550;2023-06-22T07:41:39;101314.97;;;50.56;26.87
32237;BME280;18726;44.732;10.550;2023-06-22T07:44:46;101311.38;;;50.46;26.95
32237;BME280;18726;44.732;10.550;2023-06-22T07:47:50;101312.75;;;50.45;26.64
32237;BME280;18726;44.732;10.550;2023-06-22T07:50:53;101314.06;;;50.22;26.76
32237;BME280;18726;44.732;10.550;2023-06-22T07:53:57;101321.00;;;49.69;27.19
32237;BME280;18726;44.732;10.550;2023-06-22T07:57:02;101318.72;;;49.29;27.01
32237;BME280;18726;44.732;10.550;2023-06-22T08:00:07;101313.44;;;48.79;27.99
32237;BME280;18726;44.732;10.550;2023-06-22T08:03:18;101303.97;;;48.59;28.54
32237;BME280;18726;44.732;10.550;2023-06-22T08:06:22;101293.88;;;48.41;28.88
32237;BME280;18726;44.732;10.550;2023-06-22T08:09:28;101288.66;;;48.30;27.85
32237;BME280;18726;44.732;10.550;2023-06-22T08:12:32;101289.53;;;48.23;28.58
32237;BME280;18726;44.732;10.550;2023-06-22T08:15:36;101288.81;;;48.32;28.44
32237;BME280;18726;44.732;10.550;2023-06-22T08:18:40;101290.00;;;48.29;27.58
32237;BME280;18726;44.732;10.550;2023-06-22T08:21:44;101285.06;;;48.39;27.58
32237;BME280;18726;44.732;10.550;2023-06-22T08:24:48;101293.63;;;48.56;28.25
32237;BME280;18726;44.732;10.550;2023-06-22T08:27:51;101300.47;;;48.61;26.85
32237;BME280;18726;44.732;10.550;2023-06-22T08:30:55;101300.81;;;48.65;27.57
32237;BME280;18726;44.732;10.550;2023-06-22T08:33:58;101301.34;;;49.00;27.39
32237;BME280;18726;44.732;10.550;2023-06-22T08:37:02;101301.25;;;48.61;27.25
32237;BME280;18726;44.732;10.550;2023-06-22T08:40:09;101297.44;;;48.59;27.36
32237;BME280;18726;44.732;10.550;2023-06-22T08:43:14;101291.09;;;48.33;27.14
32237;BME280;18726;44.732;10.550;2023-06-22T08:46:18;101273.19;;;48.35;28.12
32237;BME280;18726;44.732;10.550;2023-06-22T08:49:25;101276.50;;;48.22;28.24
32237;BME280;18726;44.732;10.550;2023-06-22T08:52:29;101264.28;;;48.14;28.29
32237;BME280;18726;44.732;10.550;2023-06-22T08:55:33;101247.84;;;47.01;29.76
32237;BME280;18726;44.732;10.550;2023-06-22T08:58:37;101232.00;;;42.69;34.01
32237;BME280;18726;44.732;10.550;2023-06-22T09:01:41;101252.13;;;43.93;34.19
32237;BME280;18726;44.732;10.550;2023-06-22T09:04:48;101275.19;;;45.22;31.48
32237;BME280;18726;44.732;10.550;2023-06-22T09:07:58;101273.91;;;46.03;30.84
32237;BME280;18726;44.732;10.550;2023-06-22T09:11:02;101283.03;;;46.75;29.92
32237;BME280;18726;44.732;10.550;2023-06-22T09:14:05;101288.22;;;47.11;29.58
32237;BME280;18726;44.732;10.550;2023-06-22T09:17:10;101295.09;;;47.15;29.83
32237;BME280;18726;44.732;10.550;2023-06-22T09:20:14;101287.81;;;47.14;29.85
32237;BME280;18726;44.732;10.550;2023-06-22T09:23:18;101280.47;;;47.21;30.44
32237;BME280;18726;44.732;10.550;2023-06-22T09:26:22;101289.53;;;47.34;29.08
32237;BME280;18726;44.732;10.550;2023-06-22T09:29:27;101277.66;;;47.30;29.94
32237;BME280;18726;44.732;10.550;2023-06-22T09:32:31;101259.88;;;47.42;28.80
32237;BME280;18726;44.732;10.550;2023-06-22T09:35:34;101246.81;;;46.89;28.80
32237;BME280;18726;44.732;10.550;2023-06-22T09:38:38;101235.22;;;45.09;29.97
32237;BME280;18726;44.732;10.550;2023-06-22T09:41:41;101230.47;;;44.89;32.18
32237;BME280;18726;44.732;10.550;2023-06-22T09:44:45;101239.22;;;45.69;30.57
32237;BME280;18726;44.732;10.550;2023-06-22T09:47:48;101226.56;;;43.87;29.43
32237;BME280;18726;44.732;10.550;2023-06-22T09:50:52;101240.63;;;44.52;32.04
32237;BME280;18726;44.732;10.550;2023-06-22T09:53:55;101242.16;;;45.54;31.72
32237;BME280;18726;44.732;10.550;2023-06-22T09:56:59;101232.34;;;46.04;30.83
32237;BME280;18726;44.732;10.550;2023-06-22T10:00:03;101219.16;;;46.51;29.67
32237;BME280;18726;44.732;10.550;2023-06-22T10:03:09;101218.09;;;46.64;30.20
32237;BME280;18726;44.732;10.550;2023-06-22T10:06:12;101218.22;;;46.73;28.71
32237;BME280;18726;44.732;10.550;2023-06-22T10:09:16;101213.75;;;45.73;27.09
32237;BME280;18726;44.732;10.550;2023-06-22T10:12:20;101222.28;;;44.62;30.86
32237;BME280;18726;44.732;10.550;2023-06-22T10:15:24;101236.94;;;46.07;30.78
32237;BME280;18726;44.732;10.550;2023-06-22T10:18:30;101247.31;;;46.53;29.89
32237;BME280;18726;44.732;10.550;2023-06-22T10:21:34;101247.44;;;46.13;28.07
32237;BME280;18726;44.732;10.550;2023-06-22T10:24:38;101232.63;;;46.49;30.84
32237;BME280;18726;44.732;10.550;2023-06-22T10:27:48;101230.56;;;46.84;29.58
32237;BME280;18726;44.732;10.550;2023-06-22T10:30:51;101221.94;;;47.01;27.15
32237;BME280;18726;44.732;10.550;2023-06-22T10:33:55;101209.94;;;47.12;29.15
32237;BME280;18726;44.732;10.550;2023-06-22T10:36:59;101209.25;;;47.04;28.03
32237;BME280;18726;44.732;10.550;2023-06-22T10:40:03;101209.59;;;47.43;30.19
32237;BME280;18726;44.732;10.550;2023-06-22T10:43:08;101210.84;;;47.76;28.85
32237;BME280;18726;44.732;10.550;2023-06-22T10:46:12;101204.25;;;47.66;28.13
32237;BME280;18726;44.732;10.550;2023-06-22T10:49:16;101199.56;;;47.88;27.44
32237;BME280;18726;44.732;10.550;2023-06-22T10:52:19;101194.31;;;48.03;28.53
32237;BME280;18726;44.732;10.550;2023-06-22T10:55:23;101188.28;;;46.94;28.94
32237;BME280;18726;44.732;10.550;2023-06-22T10:58:26;101185.66;;;47.23;29.56
32237;BME280;18726;44.732;10.550;2023-06-22T11:01:30;101173.16;;;47.37;28.01
32237;BME280;18726;44.732;10.550;2023-06-22T11:04:37;101178.75;;;46.49;29.54
32237;BME280;18726;44.732;10.550;2023-06-22T11:07:42;101176.41;;;46.05;31.24
32237;BME280;18726;44.732;10.550;2023-06-22T11:10:46;101170.59;;;46.97;30.55
32237;BME280;18726;44.732;10.550;2023-06-22T11:13:50;101166.97;;;47.41;30.00
32237;BME280;18726;44.732;10.550;2023-06-22T11:16:54;101161.63;;;43.74;31.57
32237;BME280;18726;44.732;10.550;2023-06-22T11:19:58;101163.03;;;42.24;33.73
32237;BME280;18726;44.732;10.550;2023-06-22T11:23:04;101150.53;;;43.20;32.47
32237;BME280;18726;44.732;10.550;2023-06-22T11:26:09;101143.91;;;44.67;32.25
32237;BME280;18726;44.732;10.550;2023-06-22T11:29:13;101141.34;;;45.82;30.82
32237;BME280;18726;44.732;10.550;2023-06-22T11:32:16;101125.44;;;43.26;31.34
32237;BME280;18726;44.732;10.550;2023-06-22T11:35:20;101128.50;;;44.40;32.40
32237;BME280;18726;44.732;10.550;2023-06-22T11:38:24;101096.75;;;43.92;32.36
32237;BME280;18726;44.732;10.550;2023-06-22T11:41:27;101093.19;;;41.02;33.81
32237;BME280;18726;44.732;10.550;2023-06-22T11:44:31;101098.34;;;41.17;34.84
32237;BME280;18726;44.732;10.550;2023-06-22T11:47:35;101085.56;;;39.80;38.17
32237;BME280;18726;44.732;10.550;2023-06-22T11:50:39;101081.38;;;40.00;37.01
32237;BME280;18726;44.732;10.550;2023-06-22T11:53:43;101082.75;;;41.04;36.81
32237;BME280;18726;44.732;10.550;2023-06-22T11:56:47;101086.63;;;40.94;36.89
32237;BME280;18726;44.732;10.550;2023-06-22T11:59:51;101080.22;;;40.22;38.66
32237;BME280;18726;44.732;10.550;2023-06-22T12:02:54;101070.22;;;39.70;36.84
32237;BME280;18726;44.732;10.550;2023-06-22T12:05:59;101077.44;;;40.88;38.36
32237;BME280;18726;44.732;10.550;2023-06-22T12:09:03;101071.03;;;40.29;38.44
32237;BME280;18726;44.732;10.550;2023-06-22T12:12:08;101078.91;;;41.15;36.54
32237;BME280;18726;44.732;10.550;2023-06-22T12:15:12;101064.75;;;39.72;36.64
32237;BME280;18726;44.732;10.550;2023-06-22T12:18:16;101056.53;;;40.00;40.20
32237;BME280;18726;44.732;10.550;2023-06-22T12:21:20;101045.91;;;39.18;40.60
32237;BME280;18726;44.732;10.550;2023-06-22T12:24:24;101047.75;;;38.72;39.96
32237;BME280;18726;44.732;10.550;2023-06-22T12:27:27;101035.94;;;38.20;39.61
32237;BME280;18726;44.732;10.550;2023-06-22T12:30:32;101045.69;;;38.73;40.95
32237;BME280;18726;44.732;10.550;2023-06-22T12:33:37;101050.09;;;38.93;38.74
32237;BME280;18726;44.732;10.550;2023-06-22T12:36:40;101047.50;;;39.32;37.48
32237;BME280;18726;44.732;10.550;2023-06-22T12:39:44;101036.84;;;39.01;38.15
32237;BME280;18726;44.732;10.550;2023-06-22T12:42:48;101035.66;;;39.28;38.56
32237;BME280;18726;44.732;10.550;2023-06-22T12:45:53;101038.31;;;39.26;38.95
32237;BME280;18726;44.732;10.550;2023-06-22T12:48:57;101036.50;;;38.67;39.54
32237;BME280;18726;44.732;10.550;2023-06-22T12:52:01;101041.69;;;38.38;41.41
32237;BME280;18726;44.732;10.550;2023-06-22T12:55:06;101032.13;;;38.84;38.81
32237;BME280;18726;44.732;10.550;2023-06-22T12:58:10;101030.84;;;39.74;37.85
32237;BME280;18726;44.732;10.550;2023-06-22T13:01:14;101035.63;;;39.66;39.20
32237;BME280;18726;44.732;10.550;2023-06-22T13:04:18;101029.63;;;40.28;39.62
32237;BME280;18726;44.732;10.550;2023-06-22T13:07:22;101042.00;;;40.30;37.18
32237;BME280;18726;44.732;10.550;2023-06-22T13:10:25;101032.81;;;40.11;37.33
32237;BME280;18726;44.732;10.550;2023-06-22T13:13:29;101037.94;;;39.99;37.21
32237;BME280;18726;44.732;10.550;2023-06-22T13:16:33;101034.63;;;39.63;38.25
32237;BME280;18726;44.732;10.550;2023-06-22T13:19:37;101034.06;;;39.52;37.15
32237;BME280;18726;44.732;10.550;2023-06-22T13:22:41;101028.75;;;40.20;36.45
32237;BME280;18726;44.732;10.550;2023-06-22T13:25:47;101033.59;;;40.51;37.28
32237;BME280;18726;44.732;10.550;2023-06-22T13:28:51;101028.50;;;39.91;38.63
32237;BME280;18726;44.732;10.550;2023-06-22T13:31:55;101028.63;;;39.99;39.94
32237;BME280;18726;44.732;10.550;2023-06-22T13:35:01;101024.00;;;39.51;38.65
32237;BME280;18726;44.732;10.550;2023-06-22T13:38:05;101020.63;;;39.14;38.47
32237;BME280;18726;44.732;10.550;2023-06-22T13:41:08;101011.25;;;39.01;37.51
32237;BME280;18726;44.732;10.550;2023-06-22T13:44:12;101011.09;;;39.63;37.57
32237;BME280;18726;44.732;10.550;2023-06-22T13:47:16;101016.31;;;39.45;38.49
32237;BME280;18726;44.732;10.550;2023-06-22T13:50:19;101008.50;;;38.95;38.18
32237;BME280;18726;44.732;10.550;2023-06-22T13:53:24;101002.13;;;39.59;39.71
32237;BME280;18726;44.732;10.550;2023-06-22T13:56:29;100999.59;;;39.23;39.01
32237;BME280;18726;44.732;10.550;2023-06-22T13:59:33;101002.91;;;39.40;38.48
32237;BME280;18726;44.732;10.550;2023-06-22T14:02:37;101000.16;;;39.54;38.21
32237;BME280;18726;44.732;10.550;2023-06-22T14:05:41;101004.00;;;40.01;38.23
32237;BME280;18726;44.732;10.550;2023-06-22T14:08:44;100997.38;;;39.80;36.75
32237;BME280;18726;44.732;10.550;2023-06-22T14:11:48;100994.75;;;39.82;38.17
32237;BME280;18726;44.732;10.550;2023-06-22T14:14:52;100997.88;;;40.10;41.04
32237;BME280;18726;44.732;10.550;2023-06-22T14:17:56;100993.25;;;39.94;39.94
32237;BME280;18726;44.732;10.550;2023-06-22T14:21:00;100988.00;;;39.98;42.13
32237;BME280;18726;44.732;10.550;2023-06-22T14:24:03;100991.06;;;40.00;44.36
32237;BME280;18726;44.732;10.550;2023-06-22T14:27:07;100986.81;;;40.20;43.49
32237;BME280;18726;44.732;10.550;2023-06-22T14:30:12;100987.13;;;40.56;40.43
32237;BME280;18726;44.732;10.550;2023-06-22T14:33:16;100987.91;;;41.17;40.39
32237;BME280;18726;44.732;10.550;2023-06-22T14:36:20;100981.00;;;40.65;41.16
32237;BME280;18726;44.732;10.550;2023-06-22T14:39:24;100981.66;;;40.71;39.50
32237;BME280;18726;44.732;10.550;2023-06-22T14:42:28;100981.84;;;40.87;41.58
32237;BME280;18726;44.732;10.550;2023-06-22T14:45:33;100987.81;;;40.49;42.39
32237;BME280;18726;44.732;10.550;2023-06-22T14:48:37;100991.28;;;39.89;39.88
32237;BME280;18726;44.732;10.550;2023-06-22T14:51:41;100984.00;;;39.88;39.52
32237;BME280;18726;44.732;10.550;2023-06-22T14:54:45;100986.25;;;40.61;40.32
32237;BME280;18726;44.732;10.550;2023-06-22T14:57:48;100988.44;;;40.81;39.44
32237;BME280;18726;44.732;10.550;2023-06-22T15:00:52;100978.47;;;41.09;39.59
32237;BME280;18726;44.732;10.550;2023-06-22T15:03:55;100979.91;;;41.36;39.36
32237;BME280;18726;44.732;10.550;2023-06-22T15:06:59;100966.84;;;41.20;37.82
32237;BME280;18726;44.732;10.550;2023-06-22T15:10:03;100967.72;;;40.81;40.02
32237;BME280;18726;44.732;10.550;2023-06-22T15:13:07;100968.88;;;40.99;39.63
32237;BME280;18726;44.732;10.550;2023-06-22T15:16:10;100972.53;;;41.20;39.47
32237;BME280;18726;44.732;10.550;2023-06-22T15:19:14;100974.72;;;41.14;42.25
32237;BME280;18726;44.732;10.550;2023-06-22T15:22:18;100965.63;;;41.15;41.00
32237;BME280;18726;44.732;10.550;2023-06-22T15:25:23;100956.53;;;40.83;40.26
32237;BME280;18726;44.732;10.550;2023-06-22T15:28:28;100950.53;;;39.81;41.22
32237;BME280;18726;44.732;10.550;2023-06-22T15:31:32;100943.06;;;39.52;41.50
32237;BME280;18726;44.732;10.550;2023-06-22T15:34:37;100945.03;;;39.70;44.80
32237;BME280;18726;44.732;10.550;2023-06-22T15:37:41;100935.88;;;39.77;42.51
32237;BME280;18726;44.732;10.550;2023-06-22T15:40:45;100932.22;;;39.31;43.47
32237;BME280;18726;44.732;10.550;2023-06-22T15:43:49;100938.66;;;39.00;45.03
32237;BME280;18726;44.732;10.550;2023-06-22T15:46:53;100925.16;;;39.06;44.44
32237;BME280;18726;44.732;10.550;2023-06-22T15:49:57;100931.31;;;38.91;46.36
32237;BME280;18726;44.732;10.550;2023-06-22T15:53:01;100930.63;;;39.04;46.77
32237;BME280;18726;44.732;10.550;2023-06-22T15:56:04;100924.22;;;39.48;47.23